This is the latest recevied weather packets stored in our database for station/object N0MR. If no packets are shown the sender has not sent any weather packets the latest 10 day(s).
| Time | Temp. | Humidity | Pressure | Rain* | Wind** | Luminosity | Snow |
|---|---|---|---|---|---|---|---|
| 1777941109 | 5° C | 58% | 999.5 hPa | 0 mm | - | - | - |
| 1777940510 | 5° C | 59% | 999.4 hPa | 0 mm | - | - | - |
| 1777939909 | 5° C | 59% | 999.4 hPa | 0 mm | - | - | - |
| 1777939311 | 5° C | 60% | 999.2 hPa | 0 mm | - | - | - |
| 1777938111 | 5° C | 62% | 999 hPa | 0 mm | - | - | - |
| 1777937510 | 5.56° C | 61% | 998.8 hPa | 0 mm | - | - | - |
| 1777936910 | 5.56° C | 61% | 998.8 hPa | 0 mm | - | - | - |
| 1777936311 | 6.11° C | 59% | 998.4 hPa | 0 mm | - | - | - |
| 1777935711 | 6.11° C | 59% | 998.4 hPa | 0 mm | - | - | - |
| 1777935111 | 5.56° C | 59% | 998.2 hPa | 0 mm | - | - | - |
| 1777934510 | 5.56° C | 59% | 998.2 hPa | 0 mm | - | - | - |
| 1777933910 | 6.67° C | 59% | 997.8 hPa | 0 mm | - | - | - |
| 1777933311 | 6.67° C | 59% | 997.8 hPa | 0 mm | - | - | - |
| 1777932710 | 6.11° C | 60% | 997.7 hPa | 0 mm | - | - | - |
| 1777932110 | 6.11° C | 60% | 997.7 hPa | 0 mm | - | - | - |
| 1777931511 | 6.11° C | 60% | 997.3 hPa | 0 mm | - | - | - |
| 1777930910 | 6.11° C | 60% | 997.3 hPa | 0 mm | - | - | - |
| 1777930311 | 7.22° C | 56% | 996.9 hPa | 0 mm | - | - | - |
| 1777929711 | 7.22° C | 56% | 996.9 hPa | 0 mm | - | - | - |
| 1777929110 | 6.67° C | 55% | 996.6 hPa | 0 mm | - | - | - |
| 1777928511 | 6.67° C | 55% | 996.6 hPa | 0 mm | - | - | - |
| 1777927912 | 7.22° C | 54% | 996.3 hPa | 0 mm | - | - | - |
| 1777927310 | 7.22° C | 54% | 996.3 hPa | 0 mm | - | - | - |
| 1777926711 | 7.78° C | 52% | 996.2 hPa | 0 mm | - | - | - |
| 1777926111 | 8.89° C | 51% | 995.7 hPa | 0 mm | - | - | - |
* Rain latest hour (hover to see other rain measurements)
** Current wind speed in m/s (hover to see current wind gust speed)